Time;durP1;ratioP1;P1;durP2;ratioP2;P2;SDS_P1;SDS_P2;PMS_P1;PMS_P2;Temp;Humidity;BMP_temperature;BMP_pressure;BME280_temperature;BME280_humidity;BME280_pressure;Samples;Min_cycle;Max_cycle;Signal;HPM_P1;HPM_P2
2022/10/23 00:01:40;;;;;;;20.50;11.90;;;;;;;10.61;82.17;98575.80;102404;1294;75813;-23
2022/10/23 00:04:13;;;;;;;20.50;12.10;;;;;;;10.51;81.78;98573.88;102362;1299;73249;-22
2022/10/23 00:06:42;;;;;;;17.60;11.80;;;;;;;10.31;82.39;98571.50;102402;1297;61131;-23
2022/10/23 00:09:11;;;;;;;21.20;11.70;;;;;;;10.05;83.11;98570.80;102295;1290;61186;-23
2022/10/23 00:11:41;;;;;;;21.80;11.20;;;;;;;9.99;83.67;98568.67;102284;1299;75108;-22
2022/10/23 00:14:08;;;;;;;21.50;11.60;;;;;;;10.42;83.06;98567.42;102642;1299;75899;-22
2022/10/23 00:16:37;;;;;;;19.60;11.70;;;;;;;10.55;82.21;98567.00;102338;1299;74333;-23
2022/10/23 00:19:05;;;;;;;19.20;11.60;;;;;;;10.44;82.08;98566.58;102283;1291;61928;-23
2022/10/23 00:21:39;;;;;;;22.80;12.10;;;;;;;10.11;83.22;98569.41;102262;1295;61168;-22
2022/10/23 00:24:07;;;;;;;17.90;9.90;;;;;;;9.98;83.70;98566.17;102256;1289;75387;-22
2022/10/23 00:26:36;;;;;;;16.20;11.00;;;;;;;10.32;83.39;98566.03;102306;1292;74892;-23
2022/10/23 00:29:05;;;;;;;17.30;10.20;;;;;;;10.61;82.31;98562.66;102098;1297;74570;-22
2022/10/23 00:31:36;;;;;;;22.00;12.90;;;;;;;10.49;81.95;98562.77;102297;1299;61150;-22
2022/10/23 00:34:06;;;;;;;23.80;12.00;;;;;;;10.12;83.12;98560.13;102289;1299;61816;-22
2022/10/23 00:36:35;;;;;;;20.40;10.10;;;;;;;9.92;84.27;98557.82;102447;1294;75564;-23
2022/10/23 00:39:03;;;;;;;22.60;11.50;;;;;;;10.18;84.01;98558.85;102305;1295;74639;-22
2022/10/23 00:41:31;;;;;;;17.50;11.30;;;;;;;10.49;82.77;98551.71;102305;1298;74311;-22
2022/10/23 00:44:03;;;;;;;20.60;11.90;;;;;;;10.35;82.94;98547.16;102260;1297;62259;-23
2022/10/23 00:46:32;;;;;;;20.50;12.50;;;;;;;10.14;83.35;98546.09;101987;1296;61694;-23
2022/10/23 00:49:00;;;;;;;21.30;10.60;;;;;;;9.89;84.15;98545.11;102204;1294;75448;-22
2022/10/23 00:51:32;;;;;;;25.00;11.60;;;;;;;10.12;84.29;98544.00;102445;1296;75800;-22
2022/10/23 00:54:00;;;;;;;23.00;12.00;;;;;;;10.48;83.16;98544.89;102244;1299;74514;-22
2022/10/23 00:56:48;;;;;;;20.70;12.00;;;;;;;10.30;83.12;98545.72;102261;1289;61766;-22
2022/10/23 00:59:15;;;;;;;21.50;12.70;;;;;;;10.07;83.63;98550.45;102242;1298;61687;-22
2022/10/23 01:01:43;;;;;;;18.40;11.00;;;;;;;9.85;84.69;98550.59;102416;1299;75392;-22
2022/10/23 01:04:14;;;;;;;18.80;11.40;;;;;;;10.17;84.43;98549.29;102404;1298;75835;-22
2022/10/23 01:06:58;;;;;;;20.70;13.10;;;;;;;10.39;83.28;98542.54;102474;1299;74263;-22
2022/10/23 01:09:33;;;;;;;20.50;12.90;;;;;;;10.41;82.95;98544.90;102223;1293;61184;-22
2022/10/23 01:12:25;;;;;;;21.20;12.20;;;;;;;10.23;82.54;98549.98;101987;1299;61156;-22
2022/10/23 01:15:00;;;;;;;16.90;9.10;;;;;;;10.06;83.44;98551.58;102289;1297;75292;-22
2022/10/23 01:17:40;;;;;;;19.80;10.70;;;;;;;10.54;82.75;98545.50;102320;1299;75806;-22
2022/10/23 01:20:40;;;;;;;19.80;12.20;;;;;;;10.76;82.03;98544.66;102008;1294;74090;-22
2022/10/23 01:23:22;;;;;;;19.10;12.20;;;;;;;10.55;82.48;98538.20;102022;1293;62037;-22
2022/10/23 01:26:10;;;;;;;;;;;;;;;10.27;83.24;98534.81;102093;1302;61821;-22
2022/10/23 01:29:18;;;;;;;18.60;10.50;;;;;;;10.03;84.01;98535.22;102325;1297;75392;-23
2022/10/23 01:32:13;;;;;;;17.90;10.30;;;;;;;10.06;84.87;98534.42;102263;1300;75857;-22
2022/10/23 01:34:55;;;;;;;18.20;11.50;;;;;;;10.60;83.25;98535.76;102101;1298;74038;-22
2022/10/23 01:37:28;;;;;;;19.60;11.50;;;;;;;10.62;82.85;98535.64;102140;1297;61829;-22
2022/10/23 01:40:01;;;;;;;18.70;10.70;;;;;;;10.50;82.99;98540.15;102248;1298;62070;-22
2022/10/23 01:42:38;;;;;;;20.70;12.00;;;;;;;10.29;83.05;98544.98;102021;1304;74315;-22
2022/10/23 01:45:08;;;;;;;17.40;9.60;;;;;;;10.12;83.80;98548.96;102168;1302;75849;-22
2022/10/23 01:47:44;;;;;;;15.60;9.30;;;;;;;10.62;83.33;98548.13;102313;1295;72989;-22
2022/10/23 01:50:14;;;;;;;17.60;10.80;;;;;;;11.02;81.57;98552.66;102395;1298;62050;-22
2022/10/23 01:52:46;;;;;;;18.70;12.00;;;;;;;10.96;81.50;98556.22;102205;1294;61770;-22
2022/10/23 01:55:15;;;;;;;19.60;11.40;;;;;;;10.70;81.86;98557.68;102197;1299;75430;-22
2022/10/23 01:57:43;;;;;;;19.00;11.60;;;;;;;10.43;82.93;98556.02;102312;1298;74151;-22
2022/10/23 02:00:13;;;;;;;17.30;8.80;;;;;;;10.26;83.38;98562.85;102407;1299;74177;-22
2022/10/23 02:02:53;;;;;;;16.40;9.80;;;;;;;10.77;83.08;98566.64;102379;1299;61075;-22
2022/10/23 02:05:28;;;;;;;16.30;10.70;;;;;;;11.22;81.53;98567.39;102302;1300;61709;-22
2022/10/23 02:07:57;;;;;;;19.10;10.00;;;;;;;11.20;81.30;98564.63;102166;1300;75492;-22
2022/10/23 02:10:32;;;;;;;17.10;10.00;;;;;;;10.97;81.67;98555.42;102247;1299;76326;-22
2022/10/23 02:13:02;;;;;;;18.70;11.00;;;;;;;10.71;82.15;98551.84;101961;1294;73211;-22
2022/10/23 02:15:37;;;;;;;12.60;7.60;;;;;;;10.50;82.66;98549.16;102255;1298;63651;-23
2022/10/23 02:18:14;;;;;;;14.70;9.00;;;;;;;10.94;82.87;98555.86;102082;1301;61725;-22
2022/10/23 02:20:54;;;;;;;14.10;9.70;;;;;;;11.37;81.18;98564.11;102293;1291;75405;-22
2022/10/23 02:23:27;;;;;;;17.20;10.70;;;;;;;11.31;80.97;98562.77;102326;1292;75769;-22
2022/10/23 02:26:00;;;;;;;17.20;10.60;;;;;;;11.08;81.62;98559.80;102270;1291;74398;-23
2022/10/23 02:28:33;;;;;;;19.10;11.20;;;;;;;10.79;82.36;98566.23;102296;1297;61928;-22
2022/10/23 02:31:01;;;;;;;15.90;8.60;;;;;;;10.57;83.44;98565.88;102066;1299;61068;-22
2022/10/23 02:33:30;;;;;;;14.40;8.30;;;;;;;10.97;83.12;98563.91;102288;1299;74581;-22
2022/10/23 02:35:58;;;;;;;16.40;9.90;;;;;;;11.40;81.96;98567.17;102360;1294;75728;-22
2022/10/23 02:38:40;;;;;;;18.30;10.10;;;;;;;11.34;81.87;98568.02;102250;1291;74253;-23
2022/10/23 02:41:40;;;;;;;17.20;11.40;;;;;;;11.11;82.16;98571.36;102210;1299;61808;-22
2022/10/23 02:44:36;;;;;;;20.50;11.50;;;;;;;10.78;83.24;98575.38;102397;1299;61714;-22
2022/10/23 02:47:29;;;;;;;12.00;7.80;;;;;;;10.57;84.84;98579.96;102348;1293;74236;-23
2022/10/23 02:50:04;;;;;;;15.90;9.70;;;;;;;11.12;83.72;98580.82;102334;1291;75766;-23
2022/10/23 02:52:31;;;;;;;;;;;;;;;11.35;82.54;98583.40;102277;1299;74073;-23
2022/10/23 02:55:11;;;;;;;16.10;9.70;;;;;;;11.20;82.98;98586.65;102176;1293;61887;-23
2022/10/23 02:58:14;;;;;;;14.30;9.80;;;;;;;10.98;83.48;98588.02;102187;1291;61906;-23
2022/10/23 03:00:48;;;;;;;14.30;9.30;;;;;;;10.66;84.99;98586.81;102353;1291;74332;-23
2022/10/23 03:03:18;;;;;;;15.00;9.60;;;;;;;10.66;86.00;98590.09;102336;1299;74910;-22
2022/10/23 03:05:46;;;;;;;15.40;9.40;;;;;;;11.15;84.56;98593.58;102179;1301;74206;-22
2022/10/23 03:08:14;;;;;;;14.70;9.70;;;;;;;11.27;83.71;98595.99;102473;1299;61835;-23
2022/10/23 03:10:42;;;;;;;16.10;9.30;;;;;;;11.11;83.99;98594.77;102439;1295;61868;-23
2022/10/23 03:13:10;;;;;;;20.70;10.20;;;;;;;10.87;84.97;98601.31;102075;1305;74366;-22
2022/10/23 03:15:42;;;;;;;12.20;8.50;;;;;;;10.66;86.57;98601.09;102325;1297;75674;-22
2022/10/23 03:18:16;;;;;;;16.30;9.40;;;;;;;11.09;85.51;98602.79;102263;1297;74344;-23
2022/10/23 03:20:54;;;;;;;17.20;9.70;;;;;;;11.39;83.93;98601.27;102258;1298;61837;-23
2022/10/23 03:23:22;;;;;;;15.20;9.20;;;;;;;11.30;84.22;98602.65;102269;1294;61705;-22
2022/10/23 03:25:52;;;;;;;17.90;11.00;;;;;;;11.07;85.11;98599.34;102215;1297;74235;-22
2022/10/23 03:28:31;;;;;;;13.70;8.30;;;;;;;10.79;87.10;98601.09;102191;1299;74987;-22
2022/10/23 03:31:01;;;;;;;13.30;9.30;;;;;;;11.14;86.29;98603.89;102355;1295;74289;-22
2022/10/23 03:33:29;;;;;;;15.00;8.10;;;;;;;11.39;85.09;98600.44;102248;1298;61095;-22
2022/10/23 03:36:00;;;;;;;10.80;7.40;;;;;;;11.24;85.06;98600.03;102234;1299;61147;-22
2022/10/23 03:38:28;;;;;;;14.10;8.50;;;;;;;11.06;85.81;98599.73;102486;1297;75402;-22
2022/10/23 03:40:56;;;;;;;10.60;6.10;;;;;;;10.91;86.85;98604.59;102271;1299;75786;-23
2022/10/23 03:43:23;;;;;;;11.10;7.50;;;;;;;11.23;85.91;98603.55;102442;1299;74272;-22
2022/10/23 03:45:51;;;;;;;11.20;7.60;;;;;;;11.55;84.48;98604.36;102441;1299;61927;-22
2022/10/23 03:48:19;;;;;;;13.40;8.10;;;;;;;11.49;84.34;98608.23;102276;1299;61815;-22
2022/10/23 03:50:46;;;;;;;11.50;7.40;;;;;;;11.28;85.15;98604.73;102371;1293;75409;-23
2022/10/23 03:53:15;;;;;;;9.30;6.30;;;;;;;10.93;86.65;98603.02;102295;1305;75691;-23
2022/10/23 03:55:44;;;;;;;10.50;6.10;;;;;;;10.93;87.46;98603.00;102267;1299;74262;-22
2022/10/23 03:58:12;;;;;;;13.10;7.20;;;;;;;11.37;85.77;98605.83;102353;1299;61915;-22
2022/10/23 04:00:41;;;;;;;11.50;6.90;;;;;;;11.51;84.68;98603.88;102354;1299;62077;-22
2022/10/23 04:03:13;;;;;;;12.50;7.60;;;;;;;11.33;85.18;98605.86;102096;1299;75381;-23
2022/10/23 04:05:41;;;;;;;12.20;7.40;;;;;;;11.09;86.27;98602.30;102698;1298;75972;-22
2022/10/23 04:08:11;;;;;;;10.70;5.80;;;;;;;10.92;87.29;98607.67;102227;1293;74297;-23
2022/10/23 04:10:48;;;;;;;10.80;7.00;;;;;;;11.27;86.56;98605.16;102344;1291;62088;-23
2022/10/23 04:13:19;;;;;;;12.00;7.20;;;;;;;11.50;85.09;98605.67;102057;1302;61734;-23
2022/10/23 04:15:48;;;;;;;10.20;6.80;;;;;;;11.38;85.35;98604.99;102380;1291;75251;-23
2022/10/23 04:18:18;;;;;;;11.90;7.90;;;;;;;11.13;86.04;98597.40;102061;1300;74885;-22
2022/10/23 04:20:48;;;;;;;10.30;6.80;;;;;;;10.91;87.35;98598.02;102377;1293;73747;-23
2022/10/23 04:23:15;;;;;;;14.10;7.40;;;;;;;11.22;86.82;98595.73;102134;1299;61190;-22
2022/10/23 04:25:44;;;;;;;8.90;7.10;;;;;;;11.43;85.47;98597.11;102336;1299;61648;-22
2022/10/23 04:28:12;;;;;;;13.10;7.90;;;;;;;11.25;85.91;98596.68;102515;1294;75530;-22
2022/10/23 04:30:40;;;;;;;13.00;7.40;;;;;;;11.05;86.74;98598.66;102324;1299;75763;-23
2022/10/23 04:33:12;;;;;;;12.00;7.10;;;;;;;10.90;87.79;98598.78;102310;1299;74324;-23
2022/10/23 04:35:40;;;;;;;12.30;7.30;;;;;;;11.23;87.00;98598.73;102383;1292;61989;-22
2022/10/23 04:38:09;;;;;;;14.30;8.30;;;;;;;11.40;85.76;98598.95;102373;1301;61879;-23
2022/10/23 04:40:37;;;;;;;16.60;8.20;;;;;;;11.30;85.92;98601.23;102339;1299;75305;-22
2022/10/23 04:43:05;;;;;;;13.60;8.70;;;;;;;11.11;86.79;98597.45;102336;1291;76044;-22
2022/10/23 04:45:38;;;;;;;9.00;6.30;;;;;;;10.90;87.96;98602.73;102373;1294;74145;-23
2022/10/23 04:48:05;;;;;;;12.10;7.90;;;;;;;11.28;87.16;98600.23;102209;1302;61995;-23
2022/10/23 04:51:06;;;;;;;17.80;8.80;;;;;;;11.54;85.46;98603.57;102036;1298;61969;-23
2022/10/23 04:54:10;;;;;;;14.90;9.00;;;;;;;11.32;85.91;98610.77;101873;1305;75346;-23
2022/10/23 04:56:50;;;;;;;15.60;9.30;;;;;;;10.95;87.49;98613.77;102298;1299;75797;-23
2022/10/23 04:59:20;;;;;;;11.90;7.50;;;;;;;10.84;88.47;98619.73;102152;1299;74101;-22
2022/10/23 05:01:48;;;;;;;15.20;9.00;;;;;;;11.30;87.30;98623.33;102316;1299;61844;-22
2022/10/23 05:04:19;;;;;;;16.60;9.50;;;;;;;11.48;85.85;98619.42;102261;1293;61908;-23
2022/10/23 05:07:05;;;;;;;15.50;9.70;;;;;;;11.37;86.05;98620.80;102441;1294;75461;-22
2022/10/23 05:09:43;;;;;;;17.80;9.70;;;;;;;11.05;87.23;98620.38;102347;1293;76306;-22
2022/10/23 05:12:41;;;;;;;18.30;10.50;;;;;;;10.92;88.52;98624.98;102171;1295;74284;-23
2022/10/23 05:15:09;;;;;;;18.80;10.80;;;;;;;11.33;87.27;98620.48;102237;1299;61941;-23
2022/10/23 05:17:38;;;;;;;19.90;10.90;;;;;;;11.43;86.00;98619.66;102235;1299;61057;-22
2022/10/23 05:20:08;;;;;;;20.50;10.80;;;;;;;11.26;86.56;98615.00;102141;1306;75209;-23
2022/10/23 05:22:36;;;;;;;20.20;11.20;;;;;;;10.98;87.88;98620.73;101960;1297;74863;-23
2022/10/23 05:25:07;;;;;;;20.70;10.50;;;;;;;10.92;88.67;98627.09;102196;1299;74219;-23
2022/10/23 05:27:34;;;;;;;21.90;11.20;;;;;;;11.20;87.59;98625.95;102096;1299;61739;-23
2022/10/23 05:30:07;;;;;;;21.30;10.70;;;;;;;11.25;87.05;98627.39;102217;1293;61990;-23
2022/10/23 05:32:36;;;;;;;21.10;11.30;;;;;;;11.19;87.39;98636.30;102280;1293;75409;-23
2022/10/23 05:35:16;;;;;;;22.50;11.60;;;;;;;11.02;88.21;98636.09;102348;1305;75799;-23
2022/10/23 05:37:48;;;;;;;22.10;11.30;;;;;;;11.02;88.73;98636.40;102358;1299;74284;-23
2022/10/23 05:40:21;;;;;;;21.40;12.00;;;;;;;11.43;87.00;98632.24;102390;1299;62000;-23
2022/10/23 05:42:52;;;;;;;21.50;11.20;;;;;;;11.44;86.47;98640.16;102384;1299;61885;-23
2022/10/23 05:45:33;;;;;;;18.80;10.20;;;;;;;11.18;87.63;98647.46;102414;1298;75502;-22
2022/10/23 05:48:33;;;;;;;16.30;8.80;;;;;;;11.02;88.63;98645.81;102568;1299;75870;-23
2022/10/23 05:51:40;;;;;;;23.80;11.50;;;;;;;11.49;87.17;98647.67;102152;1294;74488;-22
2022/10/23 05:54:32;;;;;;;22.20;11.80;;;;;;;11.46;86.61;98646.76;102308;1299;61865;-22
2022/10/23 05:57:14;;;;;;;20.00;10.20;;;;;;;11.15;88.24;98656.27;102321;1299;61948;-22
2022/10/23 05:59:50;;;;;;;14.40;9.00;;;;;;;10.94;89.56;98657.27;102267;1298;75539;-22
2022/10/23 06:02:26;;;;;;;19.60;11.00;;;;;;;11.24;88.65;98654.27;102408;1291;75953;-22
2022/10/23 06:04:59;;;;;;;20.70;9.60;;;;;;;11.37;87.69;98652.56;101512;1298;1204593;-21
2022/10/23 06:07:43;;;;;;;21.70;11.00;;;;;;;11.21;88.19;98656.16;102503;1295;61772;-21
2022/10/23 06:10:11;;;;;;;18.70;9.20;;;;;;;11.09;88.81;98660.27;102374;1293;61885;-21
2022/10/23 06:12:42;;;;;;;18.80;9.30;;;;;;;11.11;89.53;98661.16;102326;1299;75556;-21
2022/10/23 06:15:13;;;;;;;19.00;10.10;;;;;;;11.35;88.24;98660.89;102155;1302;75758;-21
2022/10/23 06:18:02;;;;;;;14.20;8.70;;;;;;;11.43;87.68;98666.79;102199;1299;74027;-21
2022/10/23 06:20:33;;;;;;;19.10;10.00;;;;;;;11.28;88.32;98673.19;102091;1299;62135;-21
2022/10/23 06:23:06;;;;;;;20.20;9.10;;;;;;;11.16;89.17;98674.44;101959;1302;62077;-21
2022/10/23 06:25:55;;;;;;;15.60;8.80;;;;;;;11.52;87.75;98675.96;102101;1299;74986;-21
2022/10/23 06:28:30;;;;;;;20.40;10.20;;;;;;;11.68;86.86;98674.11;102441;1299;75801;-21
2022/10/23 06:30:58;;;;;;;17.40;9.70;;;;;;;11.54;86.85;98676.28;102479;1299;74100;-22
2022/10/23 06:33:26;;;;;;;15.80;8.70;;;;;;;11.27;88.16;98677.42;102346;1299;61726;-21
2022/10/23 06:35:55;;;;;;;13.30;8.20;;;;;;;11.33;88.31;98679.70;102251;1299;61776;-24
2022/10/23 06:38:23;;;;;;;18.40;9.80;;;;;;;11.55;87.12;98674.41;102311;1299;75318;-22
2022/10/23 06:40:55;;;;;;;15.90;8.80;;;;;;;11.56;87.02;98676.08;102326;1299;75722;-22
2022/10/23 06:43:33;;;;;;;18.60;9.50;;;;;;;11.43;87.40;98683.30;102199;1301;74318;-21
2022/10/23 06:46:16;;;;;;;18.70;10.00;;;;;;;11.23;88.63;98684.25;102351;1296;62587;-21
2022/10/23 06:48:56;;;;;;;19.80;9.90;;;;;;;11.42;88.46;98680.30;102345;1296;61691;-22
2022/10/23 06:51:28;;;;;;;16.20;10.30;;;;;;;11.55;87.58;98686.42;102081;1299;75479;-21
2022/10/23 06:53:56;;;;;;;17.80;10.00;;;;;;;11.51;88.04;98691.60;102335;1299;75830;-21
2022/10/23 06:56:50;;;;;;;17.80;9.20;;;;;;;11.25;89.36;98688.23;102072;1301;74275;-22
2022/10/23 06:59:21;;;;;;;18.00;9.80;;;;;;;11.60;88.48;98688.75;101990;1294;61131;-22
2022/10/23 07:01:51;;;;;;;18.50;9.90;;;;;;;11.75;87.42;98688.80;102234;1298;61676;-22
2022/10/23 07:04:19;;;;;;;19.20;10.10;;;;;;;11.59;87.88;98684.34;102262;1299;75455;-22
2022/10/23 07:06:47;;;;;;;17.00;8.60;;;;;;;11.39;89.38;98689.80;102280;1298;75436;-22
2022/10/23 07:09:15;;;;;;;19.40;9.80;;;;;;;11.62;88.76;98688.70;101992;1304;74473;-23
2022/10/23 07:11:52;;;;;;;20.80;10.20;;;;;;;11.69;88.34;98689.84;102343;1299;61761;-22
2022/10/23 07:14:24;;;;;;;18.50;10.80;;;;;;;11.72;88.13;98691.28;102245;1299;61867;-22
2022/10/23 07:16:57;;;;;;;17.70;9.00;;;;;;;11.48;89.34;98693.16;102352;1299;75435;-22
2022/10/23 07:19:27;;;;;;;22.50;10.60;;;;;;;11.58;89.30;98690.98;101993;1301;74453;-22
2022/10/23 07:21:56;;;;;;;17.00;8.90;;;;;;;11.81;88.37;98691.48;102255;1299;74318;-22
2022/10/23 07:24:54;;;;;;;19.00;10.60;;;;;;;11.99;87.08;98695.42;102268;1298;61769;-22
2022/10/23 07:27:37;;;;;;;18.70;11.00;;;;;;;11.67;88.14;98685.36;102341;1294;61142;-22
2022/10/23 07:30:07;;;;;;;16.20;7.70;;;;;;;11.57;89.46;98698.91;102208;1298;73771;-22
2022/10/23 07:32:41;;;;;;;16.50;9.00;;;;;;;11.85;88.15;98700.75;101997;1300;75661;-23
2022/10/23 07:35:27;;;;;;;20.60;11.20;;;;;;;11.76;88.33;98699.45;102386;1289;73519;-22
2022/10/23 07:38:07;;;;;;;12.10;6.70;;;;;;;11.57;89.03;98698.57;102527;1292;62379;-22
2022/10/23 07:40:37;;;;;;;17.50;9.00;;;;;;;11.71;88.80;98694.20;102406;1295;61217;-23
2022/10/23 07:43:06;;;;;;;15.70;8.10;;;;;;;12.06;87.43;98701.13;102406;1299;73535;-23
2022/10/23 07:45:34;;;;;;;15.30;9.70;;;;;;;11.91;87.51;98698.66;102293;1301;75678;-23
2022/10/23 07:48:08;;;;;;;17.80;10.00;;;;;;;11.80;88.38;98696.67;102347;1299;74182;-23
2022/10/23 07:51:00;;;;;;;13.20;8.40;;;;;;;11.74;89.36;98695.48;102261;1299;63264;-23
2022/10/23 07:53:28;;;;;;;13.40;8.30;;;;;;;11.96;88.17;98697.29;101999;1301;61239;-23
2022/10/23 07:56:02;;;;;;;13.40;8.70;;;;;;;12.06;87.60;98697.80;102324;1291;76731;-22
2022/10/23 07:58:52;;;;;;;14.60;8.40;;;;;;;11.90;88.13;98700.63;102351;1302;75650;-23
2022/10/23 08:01:41;;;;;;;12.40;7.10;;;;;;;11.78;89.04;98705.35;102013;1294;73255;-24
2022/10/23 08:04:10;;;;;;;11.70;7.30;;;;;;;12.14;87.92;98706.80;102243;1299;61100;-22
2022/10/23 08:06:44;;;;;;;11.70;7.30;;;;;;;12.20;86.87;98706.20;102349;1299;61713;-22
2022/10/23 08:09:12;;;;;;;11.40;6.40;;;;;;;12.12;86.99;98710.57;102219;1299;75504;-22
2022/10/23 08:11:43;;;;;;;12.10;7.60;;;;;;;11.91;87.74;98707.66;102357;1292;75837;-22
2022/10/23 08:14:18;;;;;;;15.00;6.80;;;;;;;11.87;88.49;98707.34;102282;1299;74235;-23
2022/10/23 08:16:50;;;;;;;11.80;7.10;;;;;;;12.16;87.09;98710.23;102319;1299;61978;-24
2022/10/23 08:19:17;;;;;;;12.80;6.30;;;;;;;12.26;86.65;98710.16;102642;1291;61725;-23
2022/10/23 08:21:46;;;;;;;12.30;6.60;;;;;;;12.03;87.43;98712.69;102417;1299;75461;-23
2022/10/23 08:24:14;;;;;;;11.60;6.80;;;;;;;11.87;88.69;98710.49;102537;1298;75742;-22
2022/10/23 08:26:48;;;;;;;11.30;6.60;;;;;;;12.13;87.92;98721.84;102316;1292;73132;-23
2022/10/23 08:29:17;;;;;;;12.40;7.00;;;;;;;12.27;86.86;98725.20;101954;1297;61143;-23
2022/10/23 08:31:46;;;;;;;13.00;6.30;;;;;;;12.12;87.42;98725.77;102446;1299;61717;-23
2022/10/23 08:34:24;;;;;;;12.00;7.90;;;;;;;11.93;88.10;98729.77;102328;1299;75347;-23
2022/10/23 08:36:53;;;;;;;10.10;5.80;;;;;;;12.03;87.82;98727.61;102244;1299;75720;-23
2022/10/23 08:39:21;;;;;;;10.30;6.40;;;;;;;12.32;86.14;98737.15;102294;1297;74243;-23
2022/10/23 08:42:19;;;;;;;10.20;6.70;;;;;;;12.08;86.94;98740.36;102292;1297;61989;-23
2022/10/23 08:45:06;;;;;;;12.80;6.10;;;;;;;11.89;88.27;98741.06;102154;1291;61450;-23
2022/10/23 08:47:46;;;;;;;11.70;6.10;;;;;;;12.17;87.31;98744.49;102420;1292;75143;-24
2022/10/23 08:50:43;;;;;;;11.20;6.10;;;;;;;12.40;86.09;98745.28;102319;1292;75772;-24
2022/10/23 08:53:30;;;;;;;11.60;6.30;;;;;;;12.23;86.19;98743.71;102325;1302;74539;-24
2022/10/23 08:56:12;;;;;;;11.10;6.80;;;;;;;11.86;88.24;98757.23;102218;1294;61440;-24
2022/10/23 08:58:40;;;;;;;11.10;6.20;;;;;;;12.21;87.21;98761.59;102191;1301;62520;-24
2022/10/23 09:01:33;;;;;;;9.80;6.20;;;;;;;12.40;86.14;98759.53;102514;1291;75179;-24
2022/10/23 09:04:02;;;;;;;11.10;6.40;;;;;;;12.20;86.42;98764.84;102358;1299;75857;-24
2022/10/23 09:06:59;;;;;;;9.40;6.10;;;;;;;11.94;87.56;98763.38;102424;1299;74396;-24
2022/10/23 09:09:54;;;;;;;13.30;5.80;;;;;;;12.24;86.97;98766.98;102307;1299;61682;-24
2022/10/23 09:12:25;;;;;;;10.80;5.70;;;;;;;12.46;85.70;98764.24;102525;1297;61978;-24
2022/10/23 09:15:29;;;;;;;9.40;6.30;;;;;;;12.34;85.89;98760.64;102308;1300;75270;-25
2022/10/23 09:18:00;;;;;;;11.50;5.40;;;;;;;12.10;87.46;98763.91;102385;1299;75822;-24
2022/10/23 09:20:32;;;;;;;9.50;5.20;;;;;;;12.26;86.44;98758.94;102212;1299;74710;-24
2022/10/23 09:23:11;;;;;;;10.00;5.50;;;;;;;12.57;85.47;98773.09;102206;1298;61906;-24
2022/10/23 09:25:39;;;;;;;8.70;5.60;;;;;;;12.51;85.50;98772.64;102408;1302;61774;-24
2022/10/23 09:28:17;;;;;;;8.00;4.20;;;;;;;12.43;85.71;98777.20;102083;1299;75481;-24
2022/10/23 09:30:46;;;;;;;8.10;5.70;;;;;;;12.54;85.78;98778.77;102180;1299;75749;-24
2022/10/23 09:33:18;;;;;;;6.20;4.60;;;;;;;12.53;85.21;98781.86;102464;1299;74125;-24
2022/10/23 09:35:54;;;;;;;10.00;5.30;;;;;;;12.46;85.21;98785.49;102115;1294;62616;-24
2022/10/23 09:38:35;;;;;;;10.20;5.30;;;;;;;12.38;85.50;98787.77;101999;1296;61086;-24
2022/10/23 09:41:12;;;;;;;6.00;3.80;;;;;;;12.36;85.89;98793.30;102244;1299;75418;-24
2022/10/23 09:43:40;;;;;;;5.90;4.50;;;;;;;12.60;84.19;98790.09;102254;1299;75838;-24
2022/10/23 09:46:10;;;;;;;6.80;4.30;;;;;;;12.55;84.00;98790.19;102354;1299;74180;-24
2022/10/23 09:48:41;;;;;;;7.20;4.50;;;;;;;12.43;84.41;98790.13;102226;1295;61804;-24
2022/10/23 09:51:16;;;;;;;6.60;3.20;;;;;;;12.25;85.76;98796.56;102252;1299;61122;-24
2022/10/23 09:53:49;;;;;;;5.80;3.60;;;;;;;12.66;84.04;98792.02;102339;1294;74320;-24
2022/10/23 09:56:32;;;;;;;5.40;3.40;;;;;;;12.61;83.52;98808.94;102336;1292;75719;-24
2022/10/23 09:59:24;;;;;;;7.60;4.40;;;;;;;12.65;83.94;98807.55;102344;1299;74211;-25
2022/10/23 10:01:56;;;;;;;6.00;3.90;;;;;;;12.38;84.69;98805.84;102133;1297;61978;-24
2022/10/23 10:04:58;;;;;;;6.30;3.40;;;;;;;12.47;84.25;98803.45;102136;1299;61132;-25
2022/10/23 10:07:29;;;;;;;4.10;3.00;;;;;;;12.59;83.42;98806.02;102218;1293;75952;-24
2022/10/23 10:10:01;;;;;;;7.90;4.60;;;;;;;12.52;83.72;98813.99;102094;1302;75878;-24
2022/10/23 10:12:36;;;;;;;6.40;3.30;;;;;;;12.41;84.23;98809.92;102294;1294;74037;-24
2022/10/23 10:15:26;;;;;;;9.70;4.00;;;;;;;12.28;84.92;98806.06;102201;1297;63474;-25
2022/10/23 10:18:03;;;;;;;3.90;2.90;;;;;;;12.44;83.65;98804.59;102352;1299;61582;-24
2022/10/23 10:20:52;;;;;;;6.20;3.70;;;;;;;12.46;83.73;98805.09;102392;1299;75519;-24
2022/10/23 10:23:26;;;;;;;5.90;3.80;;;;;;;12.38;84.00;98814.44;102402;1291;75784;-24
2022/10/23 10:26:25;;;;;;;4.50;2.70;;;;;;;12.30;84.77;98816.55;102385;1291;73176;-24
2022/10/23 10:29:06;;;;;;;4.50;2.90;;;;;;;12.63;83.92;98816.79;102350;1299;61833;-24
2022/10/23 10:31:41;;;;;;;5.10;3.20;;;;;;;12.65;83.16;98815.24;102288;1298;61765;-25
2022/10/23 10:34:14;;;;;;;6.10;3.10;;;;;;;12.56;83.97;98820.75;102152;1297;75196;-25
2022/10/23 10:36:54;;;;;;;5.10;2.80;;;;;;;12.47;84.62;98818.29;102124;1286;74996;-25
2022/10/23 10:39:38;;;;;;;3.70;2.70;;;;;;;12.65;83.71;98813.84;102293;1299;75957;-24
2022/10/23 10:42:06;;;;;;;4.70;3.40;;;;;;;12.88;83.09;98808.73;101972;1299;61771;-25
2022/10/23 10:44:42;;;;;;;4.90;3.10;;;;;;;12.91;82.88;98812.80;102277;1299;61271;-25
2022/10/23 10:47:17;;;;;;;3.50;2.70;;;;;;;12.81;83.09;98818.90;102132;1297;74452;-25
2022/10/23 10:50:15;;;;;;;3.30;2.40;;;;;;;12.65;84.02;98809.41;102127;1302;75767;-25
2022/10/23 10:53:43;;;;;;;5.40;2.40;;;;;;;12.92;83.24;98818.48;102096;1299;74178;-25
2022/10/23 10:56:13;;;;;;;5.10;2.90;;;;;;;12.74;83.17;98819.06;102281;1291;61638;-24
2022/10/23 10:58:43;;;;;;;4.40;2.80;;;;;;;12.56;84.50;98825.32;102170;1292;61117;-25
2022/10/23 11:01:34;;;;;;;3.00;2.30;;;;;;;12.53;85.65;98834.08;102367;1299;75321;-24
2022/10/23 11:04:40;;;;;;;3.20;2.00;;;;;;;12.95;83.20;98832.27;102311;1294;74323;-25
2022/10/23 11:07:11;;;;;;;2.30;1.90;;;;;;;12.76;82.72;98822.90;102224;1298;74110;-25
2022/10/23 11:09:39;;;;;;;3.00;2.50;;;;;;;12.67;83.55;98826.55;102378;1299;61824;-25
2022/10/23 11:12:11;;;;;;;2.60;1.70;;;;;;;12.70;83.76;98830.13;102626;1294;62104;-25
2022/10/23 11:14:41;;;;;;;2.80;1.80;;;;;;;12.56;84.47;98836.20;102084;1302;74569;-25
2022/10/23 11:17:12;;;;;;;2.60;1.70;;;;;;;12.94;83.33;98829.80;102063;1299;75742;-25
2022/10/23 11:19:49;;;;;;;2.40;1.90;;;;;;;12.65;83.26;98827.20;102331;1298;73939;-24
2022/10/23 11:22:37;;;;;;;5.70;2.30;;;;;;;12.57;84.45;98842.91;102248;1299;61958;-25
2022/10/23 11:25:23;;;;;;;2.90;1.60;;;;;;;12.43;85.57;98840.92;102307;1293;61831;-25
2022/10/23 11:28:02;;;;;;;2.90;2.30;;;;;;;12.93;83.57;98848.16;102386;1298;75429;-24
2022/10/23 11:31:00;;;;;;;2.70;2.10;;;;;;;12.65;84.12;98846.20;102112;1302;75815;-24
2022/10/23 11:33:50;;;;;;;2.70;1.80;;;;;;;12.42;84.90;98855.96;102147;1298;73883;-24
2022/10/23 11:36:45;;;;;;;2.50;1.70;;;;;;;12.21;85.00;98850.37;102548;1299;63655;-24
2022/10/23 11:39:19;;;;;;;2.00;1.80;;;;;;;12.67;83.61;98862.89;102370;1295;61851;-25
2022/10/23 11:41:51;;;;;;;2.00;1.70;;;;;;;12.70;82.19;98860.18;102361;1295;75262;-24
2022/10/23 11:44:39;;;;;;;1.80;1.40;;;;;;;12.57;82.77;98864.39;102308;1302;74815;-25
2022/10/23 11:47:38;;;;;;;2.70;1.70;;;;;;;12.42;82.71;98870.93;102190;1298;74439;-25
2022/10/23 11:50:08;;;;;;;2.30;1.50;;;;;;;12.56;82.58;98873.98;102260;1294;62035;-24
2022/10/23 11:52:38;;;;;;;1.40;1.20;;;;;;;12.96;80.16;98879.57;102489;1292;61909;-25
2022/10/23 11:55:27;;;;;;;1.90;1.70;;;;;;;12.81;79.98;98884.42;102124;1293;76341;-24
2022/10/23 11:58:19;;;;;;;2.30;1.20;;;;;;;12.70;80.96;98884.73;102204;1301;75838;-24